sensor_id;sensor_type;location;lat;lon;timestamp;pressure;altitude;pressure_sealevel;temperature
62611;BMP280;48683;48.084;17.272;2023-04-06T00:01:16;100711.00;;;1.69
62611;BMP280;48683;48.084;17.272;2023-04-06T00:03:42;100705.69;;;1.69
62611;BMP280;48683;48.084;17.272;2023-04-06T00:06:07;100704.13;;;1.60
62611;BMP280;48683;48.084;17.272;2023-04-06T00:08:32;100711.00;;;1.61
62611;BMP280;48683;48.084;17.272;2023-04-06T00:10:58;100700.09;;;1.54
62611;BMP280;48683;48.084;17.272;2023-04-06T00:13:23;100702.75;;;1.54
62611;BMP280;48683;48.084;17.272;2023-04-06T00:15:49;100705.84;;;1.56
62611;BMP280;48683;48.084;17.272;2023-04-06T00:18:14;100701.03;;;1.49
62611;BMP280;48683;48.084;17.272;2023-04-06T00:20:40;100710.84;;;1.57
62611;BMP280;48683;48.084;17.272;2023-04-06T00:23:05;100699.19;;;1.50
62611;BMP280;48683;48.084;17.272;2023-04-06T00:25:31;100692.94;;;1.46
62611;BMP280;48683;48.084;17.272;2023-04-06T00:27:56;100702.31;;;1.52
62611;BMP280;48683;48.084;17.272;2023-04-06T00:30:22;100695.28;;;1.47
62611;BMP280;48683;48.084;17.272;2023-04-06T00:32:47;100688.75;;;1.44
62611;BMP280;48683;48.084;17.272;2023-04-06T00:35:12;100692.78;;;1.42
62611;BMP280;48683;48.084;17.272;2023-04-06T00:37:38;100693.72;;;1.46
62611;BMP280;48683;48.084;17.272;2023-04-06T00:40:05;100690.94;;;1.42
62611;BMP280;48683;48.084;17.272;2023-04-06T00:42:31;100688.75;;;1.44
62611;BMP280;48683;48.084;17.272;2023-04-06T00:44:58;100688.13;;;1.48
62611;BMP280;48683;48.084;17.272;2023-04-06T00:47:25;100683.63;;;1.39
62611;BMP280;48683;48.084;17.272;2023-04-06T00:49:51;100687.34;;;1.38
62611;BMP280;48683;48.084;17.272;2023-04-06T00:52:17;100680.81;;;1.27
62611;BMP280;48683;48.084;17.272;2023-04-06T00:54:43;100685.03;;;1.28
62611;BMP280;48683;48.084;17.272;2023-04-06T00:57:09;100684.25;;;1.28
62611;BMP280;48683;48.084;17.272;2023-04-06T00:59:34;100697.63;;;1.31
62611;BMP280;48683;48.084;17.272;2023-04-06T01:02:00;100683.91;;;1.29
62611;BMP280;48683;48.084;17.272;2023-04-06T01:04:26;100681.75;;;1.23
62611;BMP280;48683;48.084;17.272;2023-04-06T01:06:52;100694.97;;;1.31
62611;BMP280;48683;48.084;17.272;2023-04-06T01:09:17;100687.19;;;1.26
62611;BMP280;48683;48.084;17.272;2023-04-06T01:11:42;100684.53;;;1.26
62611;BMP280;48683;48.084;17.272;2023-04-06T01:14:09;100687.81;;;1.23
62611;BMP280;48683;48.084;17.272;2023-04-06T01:16:35;100687.34;;;1.30
62611;BMP280;48683;48.084;17.272;2023-04-06T01:19:01;100683.00;;;1.34
62611;BMP280;48683;48.084;17.272;2023-04-06T01:21:26;100688.59;;;1.32
62611;BMP280;48683;48.084;17.272;2023-04-06T01:23:52;100680.34;;;1.34
62611;BMP280;48683;48.084;17.272;2023-04-06T01:26:17;100687.66;;;1.37
62611;BMP280;48683;48.084;17.272;2023-04-06T01:28:42;100684.56;;;1.43
62611;BMP280;48683;48.084;17.272;2023-04-06T01:31:09;100683.00;;;1.42
62611;BMP280;48683;48.084;17.272;2023-04-06T01:33:34;100684.09;;;1.50
62611;BMP280;48683;48.084;17.272;2023-04-06T01:36:00;100675.06;;;1.42
62611;BMP280;48683;48.084;17.272;2023-04-06T01:38:26;100680.50;;;1.46
62611;BMP280;48683;48.084;17.272;2023-04-06T01:40:52;100688.13;;;1.48
62611;BMP280;48683;48.084;17.272;2023-04-06T01:43:18;100684.22;;;1.54
62611;BMP280;48683;48.084;17.272;2023-04-06T01:45:43;100681.72;;;1.49
62611;BMP280;48683;48.084;17.272;2023-04-06T01:48:08;100672.72;;;1.50
62611;BMP280;48683;48.084;17.272;2023-04-06T01:50:34;100677.06;;;1.54
62611;BMP280;48683;48.084;17.272;2023-04-06T01:52:59;100683.00;;;1.51
62611;BMP280;48683;48.084;17.272;2023-04-06T01:55:25;100671.19;;;1.40
62611;BMP280;48683;48.084;17.272;2023-04-06T01:57:51;100670.06;;;1.32
62611;BMP280;48683;48.084;17.272;2023-04-06T02:00:16;100653.28;;;1.20
62611;BMP280;48683;48.084;17.272;2023-04-06T02:02:41;100664.00;;;1.23
62611;BMP280;48683;48.084;17.272;2023-04-06T02:05:07;100657.47;;;1.21
62611;BMP280;48683;48.084;17.272;2023-04-06T02:07:33;100658.72;;;1.23
62611;BMP280;48683;48.084;17.272;2023-04-06T02:09:58;100663.53;;;1.21
62611;BMP280;48683;48.084;17.272;2023-04-06T02:12:24;100658.72;;;1.15
62611;BMP280;48683;48.084;17.272;2023-04-06T02:14:49;100655.59;;;1.04
62611;BMP280;48683;48.084;17.272;2023-04-06T02:17:15;100654.06;;;1.12
62611;BMP280;48683;48.084;17.272;2023-04-06T02:19:40;100662.63;;;1.09
62611;BMP280;48683;48.084;17.272;2023-04-06T02:22:06;100655.91;;;1.03
62611;BMP280;48683;48.084;17.272;2023-04-06T02:24:31;100646.72;;;1.00
62611;BMP280;48683;48.084;17.272;2023-04-06T02:26:57;100658.53;;;1.03
62611;BMP280;48683;48.084;17.272;2023-04-06T02:29:22;100657.31;;;1.00
62611;BMP280;48683;48.084;17.272;2023-04-06T02:31:47;100653.41;;;0.98
62611;BMP280;48683;48.084;17.272;2023-04-06T02:34:13;100658.22;;;0.95
62611;BMP280;48683;48.084;17.272;2023-04-06T02:36:44;100668.66;;;1.01
62611;BMP280;48683;48.084;17.272;2023-04-06T02:39:09;100670.19;;;1.02
62611;BMP280;48683;48.084;17.272;2023-04-06T02:41:35;100663.38;;;1.01
62611;BMP280;48683;48.084;17.272;2023-04-06T02:44:00;100660.25;;;0.99
62611;BMP280;48683;48.084;17.272;2023-04-06T02:46:26;100663.84;;;1.03
62611;BMP280;48683;48.084;17.272;2023-04-06T02:48:51;100663.84;;;1.03
62611;BMP280;48683;48.084;17.272;2023-04-06T02:51:16;100655.13;;;0.85
62611;BMP280;48683;48.084;17.272;2023-04-06T02:53:42;100659.28;;;0.86
62611;BMP280;48683;48.084;17.272;2023-04-06T02:56:07;100656.16;;;0.75
62611;BMP280;48683;48.084;17.272;2023-04-06T02:58:32;100638.88;;;0.61
62611;BMP280;48683;48.084;17.272;2023-04-06T03:00:58;100650.88;;;0.67
62611;BMP280;48683;48.084;17.272;2023-04-06T03:03:23;100666.75;;;0.75
62611;BMP280;48683;48.084;17.272;2023-04-06T03:05:49;100658.97;;;0.79
62611;BMP280;48683;48.084;17.272;2023-04-06T03:08:14;100660.53;;;0.80
62611;BMP280;48683;48.084;17.272;2023-04-06T03:10:40;100664.88;;;0.76
62611;BMP280;48683;48.084;17.272;2023-04-06T03:13:05;100653.22;;;0.68
62611;BMP280;48683;48.084;17.272;2023-04-06T03:15:31;100659.13;;;0.65
62611;BMP280;48683;48.084;17.272;2023-04-06T03:17:57;100655.38;;;0.58
62611;BMP280;48683;48.084;17.272;2023-04-06T03:20:22;100662.81;;;0.56
62611;BMP280;48683;48.084;17.272;2023-04-06T03:22:48;100669.38;;;0.58
62611;BMP280;48683;48.084;17.272;2023-04-06T03:25:13;100676.34;;;0.54
62611;BMP280;48683;48.084;17.272;2023-04-06T03:27:38;100679.00;;;0.54
62611;BMP280;48683;48.084;17.272;2023-04-06T03:30:04;100678.03;;;0.50
62611;BMP280;48683;48.084;17.272;2023-04-06T03:32:30;100672.25;;;0.48
62611;BMP280;48683;48.084;17.272;2023-04-06T03:34:55;100665.09;;;0.40
62611;BMP280;48683;48.084;17.272;2023-04-06T03:37:21;100663.19;;;0.32
62611;BMP280;48683;48.084;17.272;2023-04-06T03:39:46;100673.16;;;0.35
62611;BMP280;48683;48.084;17.272;2023-04-06T03:42:11;100679.06;;;0.40
62611;BMP280;48683;48.084;17.272;2023-04-06T03:44:37;100680.91;;;0.31
62611;BMP280;48683;48.084;17.272;2023-04-06T03:47:02;100684.66;;;0.39
62611;BMP280;48683;48.084;17.272;2023-04-06T03:49:27;100685.88;;;0.33
62611;BMP280;48683;48.084;17.272;2023-04-06T03:51:53;100684.16;;;0.28
62611;BMP280;48683;48.084;17.272;2023-04-06T03:54:18;100679.50;;;0.25
62611;BMP280;48683;48.084;17.272;2023-04-06T03:56:44;100692.06;;;0.28
62611;BMP280;48683;48.084;17.272;2023-04-06T03:59:09;100684.47;;;0.27
62611;BMP280;48683;48.084;17.272;2023-04-06T04:01:34;100695.03;;;0.27
62611;BMP280;48683;48.084;17.272;2023-04-06T04:04:00;100697.97;;;0.25
62611;BMP280;48683;48.084;17.272;2023-04-06T04:06:25;100689.88;;;0.22
62611;BMP280;48683;48.084;17.272;2023-04-06T04:08:51;100700.94;;;0.32
62611;BMP280;48683;48.084;17.272;2023-04-06T04:11:16;100693.94;;;0.28
62611;BMP280;48683;48.084;17.272;2023-04-06T04:13:41;100702.63;;;0.28
62611;BMP280;48683;48.084;17.272;2023-04-06T04:16:07;100697.97;;;0.25
62611;BMP280;48683;48.084;17.272;2023-04-06T04:18:32;100691.56;;;0.18
62611;BMP280;48683;48.084;17.272;2023-04-06T04:20:58;100686.56;;;0.16
62611;BMP280;48683;48.084;17.272;2023-04-06T04:23:23;100702.19;;;0.26
62611;BMP280;48683;48.084;17.272;2023-04-06T04:25:48;100701.41;;;0.26
62611;BMP280;48683;48.084;17.272;2023-04-06T04:28:14;100699.53;;;0.26
62611;BMP280;48683;48.084;17.272;2023-04-06T04:30:39;100702.34;;;0.30
62611;BMP280;48683;48.084;17.272;2023-04-06T04:33:05;100704.88;;;0.35
62611;BMP280;48683;48.084;17.272;2023-04-06T04:35:30;100700.34;;;0.35
62611;BMP280;48683;48.084;17.272;2023-04-06T04:37:56;100703.75;;;0.36
62611;BMP280;48683;48.084;17.272;2023-04-06T04:40:21;100708.63;;;0.42
62611;BMP280;48683;48.084;17.272;2023-04-06T04:42:47;100699.31;;;0.45
62611;BMP280;48683;48.084;17.272;2023-04-06T04:45:12;100700.38;;;0.44
62611;BMP280;48683;48.084;17.272;2023-04-06T04:47:37;100708.22;;;0.58
62611;BMP280;48683;48.084;17.272;2023-04-06T04:50:03;100695.28;;;0.56
62611;BMP280;48683;48.084;17.272;2023-04-06T04:52:29;100704.34;;;0.64
62611;BMP280;48683;48.084;17.272;2023-04-06T04:54:54;100705.00;;;0.69
62611;BMP280;48683;48.084;17.272;2023-04-06T04:57:19;100716.06;;;0.80
62611;BMP280;48683;48.084;17.272;2023-04-06T04:59:45;100700.97;;;0.80
62611;BMP280;48683;48.084;17.272;2023-04-06T05:02:10;100708.56;;;0.82
62611;BMP280;48683;48.084;17.272;2023-04-06T05:04:36;100705.81;;;0.87
62611;BMP280;48683;48.084;17.272;2023-04-06T05:07:10;100706.28;;;0.89
62611;BMP280;48683;48.084;17.272;2023-04-06T05:09:36;100702.25;;;0.91
62611;BMP280;48683;48.084;17.272;2023-04-06T05:12:01;100708.75;;;0.94
62611;BMP280;48683;48.084;17.272;2023-04-06T05:14:27;100720.44;;;1.02
62611;BMP280;48683;48.084;17.272;2023-04-06T05:16:53;100702.72;;;1.02
62611;BMP280;48683;48.084;17.272;2023-04-06T05:19:19;100701.50;;;1.08
62611;BMP280;48683;48.084;17.272;2023-04-06T05:21:44;100713.50;;;1.23
62611;BMP280;48683;48.084;17.272;2023-04-06T05:24:10;100711.16;;;1.30
62611;BMP280;48683;48.084;17.272;2023-04-06T05:26:35;100706.81;;;1.34
62611;BMP280;48683;48.084;17.272;2023-04-06T05:29:01;100711.63;;;1.40
62611;BMP280;48683;48.084;17.272;2023-04-06T05:31:26;100712.56;;;1.53
62611;BMP280;48683;48.084;17.272;2023-04-06T05:33:52;100711.63;;;1.58
62611;BMP280;48683;48.084;17.272;2023-04-06T05:36:17;100720.03;;;1.68
62611;BMP280;48683;48.084;17.272;2023-04-06T05:38:42;100720.94;;;1.72
62611;BMP280;48683;48.084;17.272;2023-04-06T05:41:08;100725.63;;;1.84
62611;BMP280;48683;48.084;17.272;2023-04-06T05:43:33;100723.25;;;1.91
62611;BMP280;48683;48.084;17.272;2023-04-06T05:45:59;100713.44;;;2.00
62611;BMP280;48683;48.084;17.272;2023-04-06T05:48:24;100714.66;;;2.11
62611;BMP280;48683;48.084;17.272;2023-04-06T05:50:50;100726.94;;;2.24
62611;BMP280;48683;48.084;17.272;2023-04-06T05:53:16;100718.19;;;2.32
62611;BMP280;48683;48.084;17.272;2023-04-06T05:55:41;100721.56;;;2.42
62611;BMP280;48683;48.084;17.272;2023-04-06T05:58:07;100727.50;;;2.47
62611;BMP280;48683;48.084;17.272;2023-04-06T06:00:32;100722.94;;;2.56
62611;BMP280;48683;48.084;17.272;2023-04-06T06:02:58;100713.66;;;2.71
62611;BMP280;48683;48.084;17.272;2023-04-06T06:05:23;100709.84;;;2.80
62611;BMP280;48683;48.084;17.272;2023-04-06T06:07:49;100712.47;;;2.89
62611;BMP280;48683;48.084;17.272;2023-04-06T06:10:14;100713.16;;;3.07
62611;BMP280;48683;48.084;17.272;2023-04-06T06:12:40;100712.13;;;3.20
62611;BMP280;48683;48.084;17.272;2023-04-06T06:15:05;100709.16;;;3.42
62611;BMP280;48683;48.084;17.272;2023-04-06T06:17:31;100699.63;;;3.41
62611;BMP280;48683;48.084;17.272;2023-04-06T06:19:56;100704.66;;;3.55
62611;BMP280;48683;48.084;17.272;2023-04-06T06:22:22;100698.44;;;3.71
62611;BMP280;48683;48.084;17.272;2023-04-06T06:24:47;100703.31;;;3.81
62611;BMP280;48683;48.084;17.272;2023-04-06T06:27:14;100685.97;;;3.84
62611;BMP280;48683;48.084;17.272;2023-04-06T06:29:40;100688.75;;;3.88
62611;BMP280;48683;48.084;17.272;2023-04-06T06:32:05;100686.63;;;3.93
62611;BMP280;48683;48.084;17.272;2023-04-06T06:34:31;100684.47;;;4.07
62611;BMP280;48683;48.084;17.272;2023-04-06T06:36:56;100687.94;;;4.20
62611;BMP280;48683;48.084;17.272;2023-04-06T06:39:21;100691.16;;;4.38
62611;BMP280;48683;48.084;17.272;2023-04-06T06:41:47;100681.31;;;4.38
62611;BMP280;48683;48.084;17.272;2023-04-06T06:44:12;100674.09;;;4.39
62611;BMP280;48683;48.084;17.272;2023-04-06T06:46:38;100681.97;;;4.59
62611;BMP280;48683;48.084;17.272;2023-04-06T06:49:03;100680.75;;;4.57
62611;BMP280;48683;48.084;17.272;2023-04-06T06:51:28;100672.66;;;4.53
62611;BMP280;48683;48.084;17.272;2023-04-06T06:53:54;100684.19;;;4.57
62611;BMP280;48683;48.084;17.272;2023-04-06T06:56:19;100686.06;;;4.69
62611;BMP280;48683;48.084;17.272;2023-04-06T06:58:45;100681.84;;;4.80
62611;BMP280;48683;48.084;17.272;2023-04-06T07:01:11;100681.84;;;4.80
62611;BMP280;48683;48.084;17.272;2023-04-06T07:03:36;100671.75;;;4.86
62611;BMP280;48683;48.084;17.272;2023-04-06T07:06:02;100687.59;;;4.94
62611;BMP280;48683;48.084;17.272;2023-04-06T07:08:27;100675.28;;;5.02
62611;BMP280;48683;48.084;17.272;2023-04-06T07:10:53;100669.63;;;5.03
62611;BMP280;48683;48.084;17.272;2023-04-06T07:13:21;100688.31;;;5.19
62611;BMP280;48683;48.084;17.272;2023-04-06T07:15:51;100681.66;;;5.25
62611;BMP280;48683;48.084;17.272;2023-04-06T07:18:17;100670.75;;;5.30
62611;BMP280;48683;48.084;17.272;2023-04-06T07:20:42;100666.56;;;5.29
62611;BMP280;48683;48.084;17.272;2023-04-06T07:23:08;100672.22;;;5.28
62611;BMP280;48683;48.084;17.272;2023-04-06T07:25:33;100662.78;;;5.30
62611;BMP280;48683;48.084;17.272;2023-04-06T07:27:58;100677.75;;;5.35
62611;BMP280;48683;48.084;17.272;2023-04-06T07:30:24;100672.00;;;5.33
62611;BMP280;48683;48.084;17.272;2023-04-06T07:32:51;100686.59;;;5.39
62611;BMP280;48683;48.084;17.272;2023-04-06T07:35:17;100682.94;;;5.43
62611;BMP280;48683;48.084;17.272;2023-04-06T07:37:42;100674.72;;;5.48
62611;BMP280;48683;48.084;17.272;2023-04-06T07:40:08;100680.81;;;5.64
62611;BMP280;48683;48.084;17.272;2023-04-06T07:42:33;100676.63;;;5.63
62611;BMP280;48683;48.084;17.272;2023-04-06T07:44:59;100676.66;;;5.79
62611;BMP280;48683;48.084;17.272;2023-04-06T07:47:24;100666.06;;;5.67
62611;BMP280;48683;48.084;17.272;2023-04-06T07:49:50;100675.44;;;5.77
62611;BMP280;48683;48.084;17.272;2023-04-06T07:52:15;100655.28;;;5.76
62611;BMP280;48683;48.084;17.272;2023-04-06T07:54:41;100661.09;;;5.81
62611;BMP280;48683;48.084;17.272;2023-04-06T07:57:07;100672.06;;;5.92
62611;BMP280;48683;48.084;17.272;2023-04-06T07:59:32;100673.19;;;5.91
62611;BMP280;48683;48.084;17.272;2023-04-06T08:01:57;100668.72;;;5.95
62611;BMP280;48683;48.084;17.272;2023-04-06T08:04:23;100659.13;;;6.06
62611;BMP280;48683;48.084;17.272;2023-04-06T08:06:48;100665.66;;;6.24
62611;BMP280;48683;48.084;17.272;2023-04-06T08:09:14;100666.34;;;6.37
62611;BMP280;48683;48.084;17.272;2023-04-06T08:11:39;100647.75;;;6.25
62611;BMP280;48683;48.084;17.272;2023-04-06T08:14:05;100664.84;;;6.39
62611;BMP280;48683;48.084;17.272;2023-04-06T08:16:31;100665.81;;;6.47
62611;BMP280;48683;48.084;17.272;2023-04-06T08:18:56;100657.69;;;6.59
62611;BMP280;48683;48.084;17.272;2023-04-06T08:21:21;100650.06;;;6.57
62611;BMP280;48683;48.084;17.272;2023-04-06T08:23:47;100661.44;;;6.74
62611;BMP280;48683;48.084;17.272;2023-04-06T08:26:12;100668.97;;;6.68
62611;BMP280;48683;48.084;17.272;2023-04-06T08:28:38;100647.75;;;6.40
62611;BMP280;48683;48.084;17.272;2023-04-06T08:31:06;100651.63;;;6.78
62611;BMP280;48683;48.084;17.272;2023-04-06T08:33:32;100656.81;;;6.71
62611;BMP280;48683;48.084;17.272;2023-04-06T08:36:10;100646.78;;;6.64
62611;BMP280;48683;48.084;17.272;2023-04-06T08:38:35;100646.53;;;6.53
62611;BMP280;48683;48.084;17.272;2023-04-06T08:41:06;100641.16;;;6.69
62611;BMP280;48683;48.084;17.272;2023-04-06T08:43:32;100643.66;;;6.62
62611;BMP280;48683;48.084;17.272;2023-04-06T08:45:58;100628.88;;;6.64
62611;BMP280;48683;48.084;17.272;2023-04-06T08:48:24;100627.69;;;6.81
62611;BMP280;48683;48.084;17.272;2023-04-06T08:50:50;100633.16;;;7.04
62611;BMP280;48683;48.084;17.272;2023-04-06T08:53:16;100628.66;;;6.73
62611;BMP280;48683;48.084;17.272;2023-04-06T08:55:42;100629.22;;;6.63
62611;BMP280;48683;48.084;17.272;2023-04-06T08:58:08;100613.22;;;6.47
62611;BMP280;48683;48.084;17.272;2023-04-06T09:00:37;100620.34;;;6.94
62611;BMP280;48683;48.084;17.272;2023-04-06T09:03:04;100624.28;;;7.00
62611;BMP280;48683;48.084;17.272;2023-04-06T09:05:31;100628.78;;;7.34
62611;BMP280;48683;48.084;17.272;2023-04-06T09:07:56;100610.94;;;7.19
62611;BMP280;48683;48.084;17.272;2023-04-06T09:10:22;100612.53;;;7.04
62611;BMP280;48683;48.084;17.272;2023-04-06T09:12:50;100608.13;;;7.31
62611;BMP280;48683;48.084;17.272;2023-04-06T09:15:19;100613.09;;;7.33
62611;BMP280;48683;48.084;17.272;2023-04-06T09:17:45;100615.28;;;7.46
62611;BMP280;48683;48.084;17.272;2023-04-06T09:20:12;100611.53;;;7.51
62611;BMP280;48683;48.084;17.272;2023-04-06T09:22:38;100618.69;;;7.66
62611;BMP280;48683;48.084;17.272;2023-04-06T09:25:04;100620.06;;;7.37
62611;BMP280;48683;48.084;17.272;2023-04-06T09:30:07;100600.31;;;7.42
62611;BMP280;48683;48.084;17.272;2023-04-06T09:32:50;100579.03;;;7.26
62611;BMP280;48683;48.084;17.272;2023-04-06T09:35:16;100581.06;;;7.55
62611;BMP280;48683;48.084;17.272;2023-04-06T09:37:45;100593.88;;;7.88
62611;BMP280;48683;48.084;17.272;2023-04-06T09:40:11;100586.31;;;7.71
62611;BMP280;48683;48.084;17.272;2023-04-06T09:42:37;100576.03;;;7.50
62611;BMP280;48683;48.084;17.272;2023-04-06T09:45:03;100575.88;;;7.62
62611;BMP280;48683;48.084;17.272;2023-04-06T09:47:30;100579.66;;;7.84
62611;BMP280;48683;48.084;17.272;2023-04-06T09:49:56;100577.00;;;7.84
62611;BMP280;48683;48.084;17.272;2023-04-06T09:52:24;100574.72;;;7.86
62611;BMP280;48683;48.084;17.272;2023-04-06T09:54:51;100578.56;;;7.85
62611;BMP280;48683;48.084;17.272;2023-04-06T09:57:25;100565.31;;;7.70
62611;BMP280;48683;48.084;17.272;2023-04-06T10:08:09;100559.88;;;8.11
62611;BMP280;48683;48.084;17.272;2023-04-06T10:10:35;100564.59;;;8.22
62611;BMP280;48683;48.084;17.272;2023-04-06T10:13:01;100542.69;;;8.13
62611;BMP280;48683;48.084;17.272;2023-04-06T10:15:28;100549.38;;;8.52
62611;BMP280;48683;48.084;17.272;2023-04-06T10:17:55;100537.25;;;8.32
62611;BMP280;48683;48.084;17.272;2023-04-06T10:20:28;100538.66;;;8.26
62611;BMP280;48683;48.084;17.272;2023-04-06T10:23:13;100515.03;;;8.01
62611;BMP280;48683;48.084;17.272;2023-04-06T10:25:59;100545.81;;;8.44
62611;BMP280;48683;48.084;17.272;2023-04-06T10:28:25;100533.78;;;8.57
62611;BMP280;48683;48.084;17.272;2023-04-06T10:30:58;100531.53;;;8.60
62611;BMP280;48683;48.084;17.272;2023-04-06T10:33:25;100520.63;;;8.45
62611;BMP280;48683;48.084;17.272;2023-04-06T10:35:51;100506.06;;;8.43
62611;BMP280;48683;48.084;17.272;2023-04-06T10:38:17;100518.38;;;8.47
62611;BMP280;48683;48.084;17.272;2023-04-06T10:40:47;100513.16;;;8.58
62611;BMP280;48683;48.084;17.272;2023-04-06T10:43:18;100524.53;;;8.85
62611;BMP280;48683;48.084;17.272;2023-04-06T10:45:44;100498.06;;;8.76
62611;BMP280;48683;48.084;17.272;2023-04-06T10:48:13;100506.25;;;8.90
62611;BMP280;48683;48.084;17.272;2023-04-06T10:50:41;100506.69;;;8.96
62611;BMP280;48683;48.084;17.272;2023-04-06T10:53:07;100482.00;;;8.76
62611;BMP280;48683;48.084;17.272;2023-04-06T10:55:32;100486.56;;;8.76
62611;BMP280;48683;48.084;17.272;2023-04-06T10:57:58;100487.56;;;8.94
62611;BMP280;48683;48.084;17.272;2023-04-06T11:00:23;100487.56;;;8.94
62611;BMP280;48683;48.084;17.272;2023-04-06T11:02:49;100476.34;;;8.85
62611;BMP280;48683;48.084;17.272;2023-04-06T11:05:14;100479.16;;;8.62
62611;BMP280;48683;48.084;17.272;2023-04-06T11:07:40;100474.63;;;8.66
62611;BMP280;48683;48.084;17.272;2023-04-06T11:10:07;100474.38;;;8.78
62611;BMP280;48683;48.084;17.272;2023-04-06T11:12:32;100464.34;;;8.72
62611;BMP280;48683;48.084;17.272;2023-04-06T11:14:59;100479.81;;;8.85
62611;BMP280;48683;48.084;17.272;2023-04-06T11:17:34;100468.38;;;8.88
62611;BMP280;48683;48.084;17.272;2023-04-06T11:19:59;100464.88;;;8.84
62611;BMP280;48683;48.084;17.272;2023-04-06T11:22:25;100471.63;;;8.71
62611;BMP280;48683;48.084;17.272;2023-04-06T11:24:52;100459.94;;;8.53
62611;BMP280;48683;48.084;17.272;2023-04-06T11:27:18;100448.88;;;8.54
62611;BMP280;48683;48.084;17.272;2023-04-06T11:29:44;100465.66;;;8.51
62611;BMP280;48683;48.084;17.272;2023-04-06T11:32:21;100455.00;;;8.55
62611;BMP280;48683;48.084;17.272;2023-04-06T11:34:47;100454.00;;;8.37
62611;BMP280;48683;48.084;17.272;2023-04-06T11:37:13;100455.63;;;8.45
62611;BMP280;48683;48.084;17.272;2023-04-06T11:39:49;100435.34;;;8.40
62611;BMP280;48683;48.084;17.272;2023-04-06T11:42:26;100440.34;;;8.45
62611;BMP280;48683;48.084;17.272;2023-04-06T11:44:59;100446.31;;;8.65
62611;BMP280;48683;48.084;17.272;2023-04-06T11:47:30;100451.38;;;8.74
62611;BMP280;48683;48.084;17.272;2023-04-06T11:49:55;100435.72;;;8.76
62611;BMP280;48683;48.084;17.272;2023-04-06T11:52:25;100441.97;;;8.87
62611;BMP280;48683;48.084;17.272;2023-04-06T11:54:52;100443.19;;;8.96
62611;BMP280;48683;48.084;17.272;2023-04-06T11:57:18;100433.34;;;9.04
62611;BMP280;48683;48.084;17.272;2023-04-06T11:59:44;100419.22;;;9.11
62611;BMP280;48683;48.084;17.272;2023-04-06T12:02:09;100439.84;;;9.50
62611;BMP280;48683;48.084;17.272;2023-04-06T12:04:35;100413.25;;;9.79
62611;BMP280;48683;48.084;17.272;2023-04-06T12:07:02;100423.50;;;9.70
62611;BMP280;48683;48.084;17.272;2023-04-06T12:09:28;100416.38;;;9.91
62611;BMP280;48683;48.084;17.272;2023-04-06T12:11:53;100418.84;;;10.18
62611;BMP280;48683;48.084;17.272;2023-04-06T12:14:19;100415.22;;;9.92
62611;BMP280;48683;48.084;17.272;2023-04-06T12:16:44;100406.94;;;10.15
62611;BMP280;48683;48.084;17.272;2023-04-06T12:19:11;100401.91;;;10.10
62611;BMP280;48683;48.084;17.272;2023-04-06T12:21:36;100399.53;;;9.94
62611;BMP280;48683;48.084;17.272;2023-04-06T12:24:03;100398.34;;;9.88
62611;BMP280;48683;48.084;17.272;2023-04-06T12:26:29;100381.66;;;10.23
62611;BMP280;48683;48.084;17.272;2023-04-06T12:28:55;100395.00;;;10.09
62611;BMP280;48683;48.084;17.272;2023-04-06T12:31:22;100392.41;;;10.23
62611;BMP280;48683;48.084;17.272;2023-04-06T12:33:51;100387.41;;;10.15
62611;BMP280;48683;48.084;17.272;2023-04-06T12:36:19;100379.69;;;10.13
62611;BMP280;48683;48.084;17.272;2023-04-06T12:38:48;100370.59;;;10.32
62611;BMP280;48683;48.084;17.272;2023-04-06T12:41:14;100378.63;;;10.32
62611;BMP280;48683;48.084;17.272;2023-04-06T12:43:40;100372.91;;;10.33
62611;BMP280;48683;48.084;17.272;2023-04-06T12:46:06;100358.72;;;10.43
62611;BMP280;48683;48.084;17.272;2023-04-06T12:48:31;100347.19;;;10.25
62611;BMP280;48683;48.084;17.272;2023-04-06T12:50:59;100358.72;;;10.36
62611;BMP280;48683;48.084;17.272;2023-04-06T12:53:25;100347.63;;;10.38
62611;BMP280;48683;48.084;17.272;2023-04-06T12:55:52;100349.41;;;10.13
62611;BMP280;48683;48.084;17.272;2023-04-06T12:58:18;100359.13;;;10.35
62611;BMP280;48683;48.084;17.272;2023-04-06T13:00:44;100352.28;;;10.66
62611;BMP280;48683;48.084;17.272;2023-04-06T13:03:10;100348.81;;;10.72
62611;BMP280;48683;48.084;17.272;2023-04-06T13:05:35;100327.31;;;10.51
62611;BMP280;48683;48.084;17.272;2023-04-06T13:08:01;100355.75;;;11.09
62611;BMP280;48683;48.084;17.272;2023-04-06T13:10:26;100345.75;;;11.30
62611;BMP280;48683;48.084;17.272;2023-04-06T13:12:52;100321.97;;;10.79
62611;BMP280;48683;48.084;17.272;2023-04-06T13:15:17;100333.09;;;10.57
62611;BMP280;48683;48.084;17.272;2023-04-06T13:17:42;100318.47;;;10.47
62611;BMP280;48683;48.084;17.272;2023-04-06T13:20:08;100329.63;;;10.63
62611;BMP280;48683;48.084;17.272;2023-04-06T13:22:34;100331.56;;;10.77
62611;BMP280;48683;48.084;17.272;2023-04-06T13:24:59;100337.34;;;10.97
62611;BMP280;48683;48.084;17.272;2023-04-06T13:27:25;100324.66;;;11.11
62611;BMP280;48683;48.084;17.272;2023-04-06T13:29:50;100305.09;;;10.97
62611;BMP280;48683;48.084;17.272;2023-04-06T13:32:15;100297.41;;;10.95
62611;BMP280;48683;48.084;17.272;2023-04-06T13:34:41;100303.94;;;10.76
62611;BMP280;48683;48.084;17.272;2023-04-06T13:37:13;100314.31;;;10.88
62611;BMP280;48683;48.084;17.272;2023-04-06T13:39:38;100293.59;;;10.89
62611;BMP280;48683;48.084;17.272;2023-04-06T13:42:04;100298.97;;;10.85
62611;BMP280;48683;48.084;17.272;2023-04-06T13:44:30;100298.19;;;10.78
62611;BMP280;48683;48.084;17.272;2023-04-06T13:46:56;100300.50;;;10.72
62611;BMP280;48683;48.084;17.272;2023-04-06T13:49:21;100292.84;;;10.85
62611;BMP280;48683;48.084;17.272;2023-04-06T13:51:47;100293.22;;;10.80
62611;BMP280;48683;48.084;17.272;2023-04-06T13:54:12;100297.44;;;10.81
62611;BMP280;48683;48.084;17.272;2023-04-06T13:56:37;100299.34;;;10.91
62611;BMP280;48683;48.084;17.272;2023-04-06T13:59:03;100292.44;;;10.97